Time;durP1;ratioP1;P1;durP2;ratioP2;P2;SDS_P1;SDS_P2;PMS_P1;PMS_P2;Temp;Humidity;BMP_temperature;BMP_pressure;BME280_temperature;BME280_humidity;BME280_pressure;Samples;Min_cycle;Max_cycle;Signal;HPM_P1;HPM_P2
2023/09/08 00:01:37;;;;;;;12.37;7.60;;;12.80;44.40;;;;;;5132321;27;46785;-78
2023/09/08 00:04:03;;;;;;;16.90;8.60;;;12.80;43.60;;;;;;5128717;27;46571;-78
2023/09/08 00:06:29;;;;;;;13.23;8.63;;;12.70;43.70;;;;;;5129533;27;46529;-77
2023/09/08 00:08:54;;;;;;;17.97;9.20;;;12.80;43.80;;;;;;5108650;27;47121;-75
2023/09/08 00:11:20;;;;;;;18.60;9.23;;;12.70;43.80;;;;;;5126310;27;46385;-75
2023/09/08 00:13:46;;;;;;;14.73;8.90;;;12.70;44.00;;;;;;5109984;27;46530;-77
2023/09/08 00:16:11;;;;;;;17.80;11.20;;;12.70;43.90;;;;;;5108785;27;46738;-75
2023/09/08 00:18:37;;;;;;;15.50;8.70;;;12.70;43.90;;;;;;5109400;27;47278;-78
2023/09/08 00:21:02;;;;;;;13.43;8.30;;;12.70;43.90;;;;;;5127923;27;46739;-78
2023/09/08 00:23:28;;;;;;;21.23;8.10;;;12.70;43.80;;;;;;5130290;27;46427;-78
2023/09/08 00:25:54;;;;;;;10.87;7.63;;;12.70;43.70;;;;;;5129656;27;46605;-79
2023/09/08 00:28:19;;;;;;;12.53;8.00;;;12.70;43.80;;;;;;5127228;27;46963;-79
2023/09/08 00:30:45;;;;;;;11.57;7.77;;;12.70;43.80;;;;;;5127091;27;46738;-78
2023/09/08 00:33:12;;;;;;;11.97;8.73;;;12.70;43.90;;;;;;5127160;27;46634;-77
2023/09/08 00:35:38;;;;;;;14.07;9.30;;;12.70;44.00;;;;;;5130342;27;46634;-78
2023/09/08 00:38:04;;;;;;;13.77;8.50;;;12.70;44.00;;;;;;5128863;27;47334;-76
2023/09/08 00:40:29;;;;;;;11.90;8.73;;;12.70;44.00;;;;;;5125551;27;46657;-77
2023/09/08 00:42:55;;;;;;;10.27;7.47;;;12.70;44.10;;;;;;5131312;27;46494;-78
2023/09/08 00:45:20;;;;;;;16.23;8.20;;;12.70;44.00;;;;;;5124797;27;46576;-78
2023/09/08 00:47:49;;;;;;;11.93;8.20;;;12.70;44.10;;;;;;5128100;27;46724;-77
2023/09/08 00:50:15;;;;;;;13.80;7.70;;;12.70;44.10;;;;;;5130820;27;46513;-77
2023/09/08 00:52:40;;;;;;;16.67;8.17;;;12.70;44.20;;;;;;5128241;27;46550;-77
2023/09/08 00:55:06;;;;;;;14.50;8.27;;;12.80;44.30;;;;;;5123300;27;46461;-77
2023/09/08 00:57:33;;;;;;;13.73;8.70;;;12.60;44.10;;;;;;5124870;27;47223;-77
2023/09/08 00:59:59;;;;;;;11.97;8.50;;;12.70;44.30;;;;;;5128935;27;46496;-77
2023/09/08 01:02:24;;;;;;;15.37;8.87;;;12.60;44.30;;;;;;5125824;27;46564;-77
2023/09/08 01:04:50;;;;;;;13.20;8.90;;;12.60;45.60;;;;;;5112239;27;46666;-77
2023/09/08 01:07:17;;;;;;;13.43;9.73;;;12.60;44.50;;;;;;5118705;27;47249;-78
2023/09/08 01:09:42;;;;;;;19.90;8.80;;;12.60;44.60;;;;;;5128447;27;47701;-79
2023/09/08 01:12:08;;;;;;;13.93;9.40;;;12.60;44.90;;;;;;5128439;27;46099;-77
2023/09/08 01:14:34;;;;;;;11.70;7.93;;;12.60;45.10;;;;;;5131278;27;46783;-79
2023/09/08 01:16:59;;;;;;;19.93;8.30;;;12.60;45.30;;;;;;5130484;27;46700;-79
2023/09/08 01:19:25;;;;;;;15.30;7.97;;;12.50;45.30;;;;;;5129456;27;46417;-76
2023/09/08 01:22:17;;;;;;;13.30;7.97;;;12.50;45.60;;;;;;5134210;27;46434;-78
2023/09/08 01:25:08;;;;;;;12.43;8.53;;;12.50;45.80;;;;;;5083477;27;46440;-78
2023/09/08 01:27:36;;;;;;;12.20;7.90;;;12.50;45.80;;;;;;5127169;27;46760;-76
2023/09/08 01:30:04;;;;;;;17.03;8.07;;;12.50;45.60;;;;;;5125687;27;46408;-76
2023/09/08 01:32:30;;;;;;;14.60;7.70;;;12.50;45.70;;;;;;5127962;27;46847;-78
2023/09/08 01:34:58;;;;;;;12.00;7.23;;;12.60;45.70;;;;;;5128070;27;46558;-76
2023/09/08 01:37:24;;;;;;;13.00;8.17;;;12.50;45.80;;;;;;5128192;27;46417;-77
2023/09/08 01:39:49;;;;;;;11.80;7.00;;;12.40;45.80;;;;;;5127462;27;46405;-78
2023/09/08 01:42:15;;;;;;;15.33;7.10;;;12.30;46.10;;;;;;5124690;27;46611;-78
2023/09/08 01:44:41;;;;;;;15.57;6.97;;;12.20;46.70;;;;;;5127294;27;46435;-79
2023/09/08 01:47:06;;;;;;;10.70;6.90;;;12.00;47.10;;;;;;5127821;27;47081;-78
2023/09/08 01:49:32;;;;;;;16.60;8.03;;;12.10;47.60;;;;;;5127465;27;46427;-79
2023/09/08 01:51:57;;;;;;;11.40;7.30;;;12.00;46.40;;;;;;5127667;27;46425;-79
2023/09/08 01:54:23;;;;;;;10.73;7.27;;;12.00;47.40;;;;;;5127154;27;46729;-79
2023/09/08 01:56:49;;;;;;;15.93;7.83;;;12.00;47.20;;;;;;5128394;27;46429;-80
2023/09/08 01:59:14;;;;;;;11.13;8.07;;;12.00;47.20;;;;;;5128280;27;46184;-78
2023/09/08 02:01:40;;;;;;;10.53;6.97;;;11.90;47.30;;;;;;5127799;27;46890;-78
2023/09/08 02:04:06;;;;;;;16.00;7.20;;;11.90;47.40;;;;;;5128681;27;46598;-79
2023/09/08 02:06:31;;;;;;;14.43;7.83;;;11.80;47.30;;;;;;5123285;27;47899;-76
2023/09/08 02:08:57;;;;;;;15.00;8.17;;;11.80;47.60;;;;;;5127565;27;46464;-77
2023/09/08 02:11:22;;;;;;;12.87;8.20;;;11.80;47.80;;;;;;5127066;27;46734;-78
2023/09/08 02:13:48;;;;;;;13.60;8.80;;;11.70;47.80;;;;;;5125630;27;46570;-78
2023/09/08 02:16:14;;;;;;;12.97;7.67;;;11.70;47.80;;;;;;5124907;27;47631;-78
2023/09/08 02:18:41;;;;;;;15.20;7.30;;;11.70;47.70;;;;;;5125237;27;46443;-78
2023/09/08 02:21:07;;;;;;;13.83;8.60;;;11.70;47.70;;;;;;5124856;27;46453;-77
2023/09/08 02:23:33;;;;;;;15.80;9.43;;;11.70;47.70;;;;;;5127716;27;46862;-77
2023/09/08 02:25:58;;;;;;;15.23;9.07;;;11.70;47.80;;;;;;5127565;27;46417;-77
2023/09/08 02:28:24;;;;;;;13.70;9.13;;;11.60;47.70;;;;;;5126254;27;46871;-78
2023/09/08 02:30:50;;;;;;;12.13;8.80;;;11.60;48.00;;;;;;5127233;27;46531;-78
2023/09/08 02:33:15;;;;;;;12.47;8.17;;;11.60;48.30;;;;;;5125367;27;46433;-79
2023/09/08 02:35:41;;;;;;;13.07;9.70;;;11.60;48.30;;;;;;5124737;27;46781;-78
2023/09/08 02:38:07;;;;;;;23.07;9.37;;;11.50;48.50;;;;;;5127176;27;46553;-78
2023/09/08 02:40:34;;;;;;;11.33;7.80;;;11.60;48.50;;;;;;5126270;27;46496;-79
2023/09/08 02:43:00;;;;;;;12.03;8.37;;;11.50;48.30;;;;;;5129448;27;46434;-79
2023/09/08 02:45:27;;;;;;;14.00;8.80;;;11.60;48.40;;;;;;5126841;27;46944;-76
2023/09/08 02:47:52;;;;;;;13.90;9.00;;;11.50;48.30;;;;;;5126951;27;46724;-78
2023/09/08 02:50:18;;;;;;;17.23;8.97;;;11.60;48.60;;;;;;5127294;27;46487;-76
2023/09/08 02:52:44;;;;;;;12.37;7.90;;;11.40;48.60;;;;;;5106607;27;46929;-78
2023/09/08 02:55:10;;;;;;;14.13;8.00;;;11.40;48.80;;;;;;5127637;27;46821;-78
2023/09/08 02:57:35;;;;;;;12.50;8.30;;;11.50;49.10;;;;;;5128599;27;46457;-78
2023/09/08 03:00:01;;;;;;;12.80;8.20;;;11.30;49.00;;;;;;5130157;27;46498;-79
2023/09/08 03:02:27;;;;;;;14.53;8.60;;;11.30;49.20;;;;;;5127632;27;46492;-80
2023/09/08 03:04:52;;;;;;;13.00;7.60;;;11.30;49.40;;;;;;5131427;27;46749;-78
2023/09/08 03:07:18;;;;;;;11.73;7.40;;;11.20;49.40;;;;;;5134168;27;46800;-79
2023/09/08 03:09:44;;;;;;;18.57;9.90;;;11.20;49.50;;;;;;5136793;27;46628;-82
2023/09/08 03:12:09;;;;;;;17.17;8.67;;;11.20;49.40;;;;;;5128435;27;46498;-79
2023/09/08 03:14:35;;;;;;;14.10;9.07;;;11.20;49.40;;;;;;5123796;27;46616;-80
2023/09/08 03:17:00;;;;;;;13.47;8.83;;;11.30;49.40;;;;;;5125222;27;46608;-80
2023/09/08 03:19:26;;;;;;;11.77;8.23;;;11.40;49.50;;;;;;5115786;27;46441;-81
2023/09/08 03:21:51;;;;;;;14.27;7.70;;;11.20;49.40;;;;;;5126946;27;46415;-78
2023/09/08 03:24:17;;;;;;;13.40;8.07;;;11.10;49.50;;;;;;5130458;27;47283;-80
2023/09/08 03:26:43;;;;;;;13.43;7.93;;;11.10;49.50;;;;;;5121064;27;46483;-77
2023/09/08 03:29:08;;;;;;;12.43;7.93;;;11.10;49.60;;;;;;5133545;27;46420;-79
2023/09/08 03:31:34;;;;;;;12.73;7.87;;;11.10;50.70;;;;;;5114028;27;46580;-79
2023/09/08 03:34:00;;;;;;;11.87;8.40;;;11.10;50.60;;;;;;5115979;27;47176;-79
2023/09/08 03:36:25;;;;;;;13.93;8.57;;;11.10;49.30;;;;;;5131830;27;47001;-79
2023/09/08 03:38:51;;;;;;;11.30;7.60;;;11.10;49.40;;;;;;5128240;27;46447;-80
2023/09/08 03:41:16;;;;;;;16.70;8.47;;;11.10;50.00;;;;;;5128240;27;46784;-77
2023/09/08 03:43:42;;;;;;;11.10;8.10;;;11.10;49.60;;;;;;5127771;27;46516;-80
2023/09/08 03:46:07;;;;;;;11.73;8.13;;;11.00;49.60;;;;;;5126995;27;46639;-78
2023/09/08 03:48:33;;;;;;;15.90;9.17;;;11.00;49.60;;;;;;5112163;27;45845;-79
2023/09/08 03:50:58;;;;;;;20.10;8.87;;;11.10;49.80;;;;;;5113625;27;47044;-80
2023/09/08 03:53:24;;;;;;;12.57;8.57;;;11.00;49.80;;;;;;5107315;27;47194;-78
2023/09/08 03:55:50;;;;;;;15.93;8.27;;;10.90;50.00;;;;;;5125904;27;46728;-79
2023/09/08 03:58:15;;;;;;;12.67;8.70;;;10.90;50.40;;;;;;5127110;27;46453;-81
2023/09/08 04:00:41;;;;;;;12.40;8.33;;;10.80;50.60;;;;;;5126730;27;46782;-79
2023/09/08 04:03:08;;;;;;;17.67;9.30;;;10.80;50.80;;;;;;5125780;27;46752;-80
2023/09/08 04:05:33;;;;;;;23.67;10.20;;;10.80;50.80;;;;;;5123165;27;47004;-79
2023/09/08 04:07:59;;;;;;;15.20;10.00;;;10.90;50.60;;;;;;5108488;27;46472;-82
2023/09/08 04:10:25;;;;;;;19.50;9.43;;;10.90;50.50;;;;;;5109975;27;47102;-80
2023/09/08 04:12:51;;;;;;;15.63;9.50;;;10.90;50.50;;;;;;5128493;27;47681;-79
2023/09/08 04:15:16;;;;;;;16.20;10.23;;;11.10;50.60;;;;;;5129842;27;46507;-80
2023/09/08 04:17:42;;;;;;;14.40;9.90;;;11.00;50.50;;;;;;5112242;27;46691;-80
2023/09/08 04:20:08;;;;;;;15.30;10.17;;;11.00;50.40;;;;;;5115913;27;46775;-81
2023/09/08 04:22:34;;;;;;;19.53;9.60;;;11.00;50.30;;;;;;5131985;27;47595;-79
2023/09/08 04:25:00;;;;;;;14.37;9.27;;;11.00;50.30;;;;;;5129128;27;46640;-79
2023/09/08 04:27:26;;;;;;;9.97;7.23;;;11.20;50.50;;;;;;5112504;27;46664;-81
2023/09/08 04:29:52;;;;;;;13.27;7.43;;;10.90;50.60;;;;;;5130555;27;46409;-80
2023/09/08 04:32:17;;;;;;;10.40;7.70;;;10.90;51.00;;;;;;5130591;27;47442;-81
2023/09/08 04:34:44;;;;;;;12.40;8.43;;;10.80;51.20;;;;;;5129319;27;46401;-80
2023/09/08 04:37:09;;;;;;;13.40;8.10;;;11.00;51.80;;;;;;5109937;27;47160;-80
2023/09/08 04:39:36;;;;;;;10.70;7.90;;;10.80;52.00;;;;;;5132062;27;46532;-79
2023/09/08 04:42:03;;;;;;;12.00;8.00;;;10.70;52.20;;;;;;5126220;27;48378;-78
2023/09/08 04:44:29;;;;;;;12.20;8.30;;;10.70;52.20;;;;;;5133032;27;47081;-77
2023/09/08 04:46:54;;;;;;;13.37;8.90;;;10.70;52.20;;;;;;5114399;27;46455;-79
2023/09/08 04:49:20;;;;;;;14.60;9.40;;;10.70;52.20;;;;;;5134119;27;46484;-78
2023/09/08 04:51:46;;;;;;;16.03;9.70;;;10.70;52.20;;;;;;5135189;27;46440;-82
2023/09/08 04:54:11;;;;;;;15.40;9.70;;;10.80;51.90;;;;;;5121584;27;46474;-79
2023/09/08 04:56:38;;;;;;;18.30;9.00;;;10.90;51.70;;;;;;5117200;27;46520;-82
2023/09/08 04:59:04;;;;;;;14.67;9.13;;;10.80;51.60;;;;;;5135831;27;46534;-79
2023/09/08 05:01:32;;;;;;;16.60;9.20;;;10.90;51.70;;;;;;5127257;27;46638;-79
2023/09/08 05:03:59;;;;;;;18.67;10.03;;;11.00;51.60;;;;;;5128308;27;46771;-78
2023/09/08 05:06:25;;;;;;;14.23;8.50;;;11.00;51.40;;;;;;5130519;27;46732;-80
2023/09/08 05:08:51;;;;;;;13.30;8.90;;;11.10;51.20;;;;;;5131440;27;46520;-78
2023/09/08 05:11:17;;;;;;;20.40;9.57;;;11.20;51.10;;;;;;5130828;27;46573;-79
2023/09/08 05:13:42;;;;;;;11.13;7.40;;;11.30;50.70;;;;;;5109090;27;46754;-78
2023/09/08 05:16:11;;;;;;;13.90;8.20;;;11.30;50.50;;;;;;5128631;27;45851;-79
2023/09/08 05:18:38;;;;;;;11.40;8.00;;;11.40;50.50;;;;;;5131157;27;46683;-78
2023/09/08 05:21:04;;;;;;;14.90;8.10;;;11.40;50.50;;;;;;5127939;27;46735;-79
2023/09/08 05:23:30;;;;;;;14.63;8.43;;;11.50;50.30;;;;;;5127058;27;46440;-80
2023/09/08 05:25:56;;;;;;;16.37;8.70;;;11.60;50.00;;;;;;5127982;27;46386;-79
2023/09/08 05:28:21;;;;;;;10.70;6.10;;;11.80;49.10;;;;;;5128451;27;46554;-81
2023/09/08 05:30:47;;;;;;;12.80;7.20;;;12.50;49.60;;;;;;5127522;27;47721;-80
2023/09/08 05:33:12;;;;;;;9.47;6.00;;;13.20;51.20;;;;;;5129651;27;46516;-81
2023/09/08 05:35:38;;;;;;;10.50;5.93;;;14.00;51.60;;;;;;5128355;27;45820;-79
2023/09/08 05:38:05;;;;;;;24.80;9.90;;;14.40;50.60;;;;;;5127772;27;47462;-80
2023/09/08 05:40:30;;;;;;;12.90;7.43;;;14.90;49.40;;;;;;5127227;27;47008;-79
2023/09/08 05:42:56;;;;;;;14.67;7.73;;;15.50;48.00;;;;;;5127399;27;46725;-80
2023/09/08 05:45:22;;;;;;;9.03;5.97;;;16.10;46.40;;;;;;5110730;27;46897;-79
2023/09/08 05:47:49;;;;;;;10.20;5.73;;;16.50;44.40;;;;;;5129998;27;46815;-80
2023/09/08 05:50:14;;;;;;;12.93;5.73;;;17.00;43.80;;;;;;5127184;27;46426;-81
2023/09/08 05:52:40;;;;;;;13.20;5.80;;;17.30;42.00;;;;;;5127626;27;46514;-82
2023/09/08 05:55:06;;;;;;;8.13;5.53;;;17.70;40.20;;;;;;5129922;27;46869;-80
2023/09/08 05:57:32;;;;;;;12.20;6.70;;;18.00;37.90;;;;;;5107184;27;47866;-83
2023/09/08 05:59:57;;;;;;;14.30;6.43;;;18.10;35.60;;;;;;5122090;27;46757;-85
2023/09/08 06:02:23;;;;;;;14.43;6.63;;;18.20;33.40;;;;;;5125642;27;46595;-82
2023/09/08 06:04:48;;;;;;;14.87;8.33;;;17.80;32.30;;;;;;5124178;27;46570;-81
2023/09/08 06:07:14;;;;;;;17.43;7.73;;;17.30;33.40;;;;;;5108885;27;46545;-76
2023/09/08 06:09:40;;;;;;;11.03;7.70;;;16.80;34.00;;;;;;5120143;27;46489;-80
2023/09/08 06:12:06;;;;;;;13.63;7.77;;;16.60;34.70;;;;;;5119808;27;46422;-80
2023/09/08 06:14:31;;;;;;;12.20;7.23;;;16.50;35.60;;;;;;5107547;27;46508;-77
2023/09/08 06:16:57;;;;;;;14.50;7.27;;;16.60;36.50;;;;;;5115067;27;46472;-80
2023/09/08 06:19:22;;;;;;;12.33;7.80;;;17.30;33.50;;;;;;5126504;27;47592;-78
2023/09/08 06:21:48;;;;;;;13.20;8.40;;;17.90;30.30;;;;;;5126450;27;47009;-81
2023/09/08 06:24:13;;;;;;;12.53;8.90;;;17.70;30.50;;;;;;5107406;27;46450;-79
2023/09/08 06:26:39;;;;;;;17.93;8.50;;;17.40;31.60;;;;;;5127766;27;46614;-80
2023/09/08 06:29:05;;;;;;;13.20;8.73;;;17.10;31.40;;;;;;5125665;27;46413;-78
2023/09/08 06:31:31;;;;;;;20.30;11.10;;;17.00;32.40;;;;;;5108041;27;46664;-81
2023/09/08 06:33:56;;;;;;;16.40;10.27;;;17.10;34.30;;;;;;5125253;27;46405;-82
2023/09/08 06:36:22;;;;;;;22.60;12.70;;;17.00;33.10;;;;;;5126051;27;46572;-83
2023/09/08 06:38:47;;;;;;;13.50;9.93;;;17.10;33.20;;;;;;5125876;27;46110;-79
2023/09/08 06:41:13;;;;;;;15.30;10.63;;;17.20;33.20;;;;;;5127767;27;46451;-82
2023/09/08 06:43:39;;;;;;;13.30;10.17;;;17.20;33.30;;;;;;5110335;27;46664;-82
2023/09/08 06:46:05;;;;;;;14.70;10.90;;;17.40;33.60;;;;;;5112084;27;46592;-83
2023/09/08 06:48:31;;;;;;;17.60;11.13;;;17.50;33.60;;;;;;5129671;27;47027;-82
2023/09/08 06:50:56;;;;;;;19.07;10.27;;;17.60;33.40;;;;;;5125028;27;46750;-81
2023/09/08 06:53:23;;;;;;;19.10;10.30;;;17.70;33.60;;;;;;5124686;27;46545;-82
2023/09/08 06:55:48;;;;;;;18.80;10.20;;;17.90;33.40;;;;;;5123751;27;46398;-79
2023/09/08 06:58:17;;;;;;;16.40;10.70;;;18.20;33.50;;;;;;5127673;27;47010;-81
2023/09/08 07:00:43;;;;;;;15.57;10.77;;;18.10;33.30;;;;;;5121903;27;47009;-81
2023/09/08 07:03:08;;;;;;;23.37;11.33;;;18.30;33.50;;;;;;5126477;27;46665;-79
2023/09/08 07:05:35;;;;;;;23.17;11.23;;;18.40;33.50;;;;;;5121417;27;46463;-81
2023/09/08 07:08:01;;;;;;;16.20;10.40;;;18.60;33.70;;;;;;5124886;27;46797;-80
2023/09/08 07:10:26;;;;;;;14.07;10.80;;;18.70;33.50;;;;;;5125218;27;46904;-81
2023/09/08 07:12:52;;;;;;;16.67;11.03;;;18.60;33.80;;;;;;5108407;27;47149;-82
2023/09/08 07:15:17;;;;;;;15.73;10.97;;;18.80;33.80;;;;;;5128524;27;46469;-81
2023/09/08 07:17:43;;;;;;;18.47;12.43;;;18.80;33.00;;;;;;5113597;27;48009;-81
2023/09/08 07:20:09;;;;;;;15.10;10.83;;;19.10;33.30;;;;;;5115470;27;46796;-81
2023/09/08 07:22:34;;;;;;;14.60;9.33;;;19.20;33.30;;;;;;5126807;27;46365;-82
2023/09/08 07:25:00;;;;;;;15.47;11.30;;;19.30;33.40;;;;;;5122841;27;45864;-82
2023/09/08 07:27:26;;;;;;;18.70;12.23;;;19.30;33.40;;;;;;5104567;27;47017;-78
2023/09/08 07:29:51;;;;;;;20.83;12.10;;;19.20;33.30;;;;;;5123655;27;46789;-80
2023/09/08 07:32:23;;;;;;;20.30;11.87;;;19.20;33.30;;;;;;5122730;27;46386;-80
2023/09/08 07:34:54;;;;;;;18.50;11.00;;;19.30;33.40;;;;;;5125788;27;46495;-80
2023/09/08 07:37:23;;;;;;;18.80;12.10;;;19.60;33.70;;;;;;5124817;27;46935;-81
2023/09/08 07:39:50;;;;;;;18.90;11.40;;;19.80;33.30;;;;;;5126690;27;46470;-83
2023/09/08 07:42:15;;;;;;;21.77;11.70;;;19.90;32.80;;;;;;5103835;27;46529;-79
2023/09/08 07:44:41;;;;;;;23.60;12.23;;;20.00;32.20;;;;;;5129123;27;47006;-78
2023/09/08 07:47:07;;;;;;;19.37;11.37;;;20.20;31.70;;;;;;5132781;27;48311;-81
2023/09/08 07:49:36;;;;;;;17.03;10.63;;;20.10;31.70;;;;;;5114613;27;47499;-80
2023/09/08 07:52:04;;;;;;;19.53;11.47;;;20.40;30.50;;;;;;5130387;27;46541;-79
2023/09/08 07:54:30;;;;;;;13.43;10.43;;;20.40;31.50;;;;;;5129802;27;46752;-79
2023/09/08 07:56:55;;;;;;;19.97;11.70;;;20.70;30.80;;;;;;5129507;27;46951;-80
2023/09/08 07:59:21;;;;;;;18.83;10.83;;;20.50;30.60;;;;;;5132410;27;46516;-79
2023/09/08 08:01:46;;;;;;;16.70;10.70;;;20.60;30.50;;;;;;5109102;27;46922;-80
2023/09/08 08:04:12;;;;;;;15.60;11.60;;;20.70;30.50;;;;;;5110151;27;46106;-81
2023/09/08 08:06:38;;;;;;;14.17;11.17;;;20.80;30.10;;;;;;5129673;27;46020;-80
2023/09/08 08:09:04;;;;;;;18.47;10.83;;;21.00;30.00;;;;;;5129464;27;46915;-80
2023/09/08 08:11:29;;;;;;;15.43;10.93;;;21.20;29.60;;;;;;5131921;27;46514;-81
2023/09/08 08:13:56;;;;;;;21.57;11.63;;;21.30;29.20;;;;;;5130772;27;46389;-83
2023/09/08 08:16:22;;;;;;;18.70;11.10;;;21.40;29.20;;;;;;5131661;27;46494;-81
2023/09/08 08:18:48;;;;;;;17.00;11.13;;;21.40;29.10;;;;;;5129613;27;46488;-82
2023/09/08 08:21:14;;;;;;;15.77;11.63;;;21.60;29.10;;;;;;5113958;27;46958;-81
2023/09/08 08:23:40;;;;;;;18.60;11.73;;;21.50;29.00;;;;;;5115734;27;46380;-83
2023/09/08 08:26:06;;;;;;;21.57;11.47;;;21.60;29.00;;;;;;5132667;27;47419;-83
2023/09/08 08:28:31;;;;;;;15.13;10.30;;;21.50;29.10;;;;;;5135644;27;46403;-81
2023/09/08 08:30:57;;;;;;;16.07;10.33;;;21.60;28.90;;;;;;5137221;27;46855;-79
2023/09/08 08:33:25;;;;;;;18.57;10.70;;;22.00;28.50;;;;;;5129641;27;46598;-79
2023/09/08 08:35:52;;;;;;;14.43;10.70;;;21.90;28.00;;;;;;5130345;27;46580;-77
2023/09/08 08:38:18;;;;;;;18.83;10.73;;;22.10;27.70;;;;;;5126508;27;46602;-80
2023/09/08 08:43:22;;;;;;;15.73;10.10;;;22.10;27.40;;;;;;5220718;22;46833;-66
2023/09/08 08:45:50;;;;;;;13.60;10.00;;;22.30;27.30;;;;;;5046398;27;48419;-63
2023/09/08 08:48:18;;;;;;;20.60;10.60;;;22.40;27.00;;;;;;5043027;27;46446;-66
2023/09/08 08:50:44;;;;;;;14.27;9.73;;;22.40;26.90;;;;;;5060556;27;47021;-63
2023/09/08 08:53:12;;;;;;;13.40;8.53;;;22.60;26.70;;;;;;5053768;27;46396;-67
2023/09/08 08:55:37;;;;;;;12.07;9.40;;;22.60;26.20;;;;;;5059194;27;46704;-69
2023/09/08 08:58:04;;;;;;;15.00;8.40;;;22.60;25.60;;;;;;5068687;27;46408;-67
2023/09/08 09:00:33;;;;;;;12.13;8.00;;;22.70;25.30;;;;;;5066531;27;46419;-70
2023/09/08 09:03:00;;;;;;;13.60;9.60;;;22.90;24.50;;;;;;5044931;27;46530;-67
2023/09/08 09:05:26;;;;;;;13.67;10.37;;;23.00;24.50;;;;;;5065901;27;46906;-68
2023/09/08 09:07:53;;;;;;;12.77;9.90;;;23.10;24.60;;;;;;5064948;27;46411;-68
2023/09/08 09:10:19;;;;;;;19.63;10.43;;;23.20;24.30;;;;;;5065638;27;46450;-69
2023/09/08 09:12:44;;;;;;;18.43;10.00;;;23.10;24.40;;;;;;5062341;27;46487;-69
2023/09/08 09:15:12;;;;;;;20.87;9.60;;;23.20;24.20;;;;;;5064678;27;46839;-69
2023/09/08 09:17:38;;;;;;;14.73;9.67;;;23.40;24.00;;;;;;5060343;27;46844;-67
2023/09/08 09:20:19;;;;;;;11.40;8.37;;;23.50;23.50;;;;;;5060907;27;47127;-66
2023/09/08 09:22:45;;;;;;;16.83;9.83;;;23.70;22.80;;;;;;5058254;27;46539;-71
2023/09/08 09:25:24;;;;;;;21.73;10.87;;;23.80;22.60;;;;;;5063703;27;46462;-68
2023/09/08 09:27:57;;;;;;;14.50;9.47;;;23.80;22.20;;;;;;5065420;27;46902;-68
2023/09/08 09:30:24;;;;;;;16.20;8.80;;;24.00;22.00;;;;;;5061362;27;45875;-68
2023/09/08 09:33:04;;;;;;;14.23;8.77;;;24.00;21.90;;;;;;5061197;27;46509;-68
2023/09/08 09:35:42;;;;;;;18.07;8.80;;;24.00;21.50;;;;;;5060225;27;46455;-68
2023/09/08 09:38:08;;;;;;;14.53;8.37;;;24.20;21.00;;;;;;5063740;27;46709;-70
2023/09/08 09:40:34;;;;;;;16.67;6.87;;;24.30;20.90;;;;;;5059630;27;46999;-73
2023/09/08 09:43:00;;;;;;;20.53;9.20;;;24.30;20.60;;;;;;5063884;27;46569;-67
2023/09/08 09:45:26;;;;;;;11.07;8.43;;;24.40;20.40;;;;;;5053367;27;47013;-72
2023/09/08 09:47:52;;;;;;;12.60;8.40;;;24.40;20.30;;;;;;5051822;27;46819;-64
2023/09/08 09:50:33;;;;;;;14.83;8.43;;;24.30;20.10;;;;;;5053899;27;46573;-66
2023/09/08 09:53:07;;;;;;;9.43;5.93;;;24.30;20.00;;;;;;5060200;27;46844;-68
2023/09/08 09:55:35;;;;;;;14.17;7.67;;;24.40;19.90;;;;;;5060661;27;46535;-65
2023/09/08 09:58:03;;;;;;;14.67;7.93;;;24.60;19.60;;;;;;5058745;27;46492;-66
2023/09/08 10:00:31;;;;;;;17.10;7.90;;;24.70;19.40;;;;;;5060886;27;46450;-66
2023/09/08 10:02:58;;;;;;;7.37;5.17;;;24.80;18.90;;;;;;5059612;27;46507;-65
2023/09/08 10:05:24;;;;;;;13.97;8.07;;;24.90;18.70;;;;;;5061892;27;46436;-66
2023/09/08 10:07:51;;;;;;;12.80;7.00;;;25.00;18.40;;;;;;5061541;27;46697;-66
2023/09/08 10:10:18;;;;;;;10.77;7.73;;;24.80;17.70;;;;;;5062552;27;46462;-66
2023/09/08 10:12:45;;;;;;;10.40;6.93;;;24.90;17.80;;;;;;5062914;27;46620;-67
2023/09/08 10:15:12;;;;;;;11.23;7.70;;;25.00;17.60;;;;;;5061858;27;47200;-65
2023/09/08 10:17:40;;;;;;;9.70;5.70;;;25.10;17.40;;;;;;5062516;27;46501;-68
2023/09/08 10:20:11;;;;;;;10.80;6.33;;;25.10;17.20;;;;;;5060822;27;46775;-69
2023/09/08 10:22:40;;;;;;;8.70;6.23;;;25.20;17.20;;;;;;5063999;27;46579;-67
2023/09/08 10:25:07;;;;;;;13.83;6.90;;;25.20;17.00;;;;;;5063413;27;46779;-66
2023/09/08 10:27:33;;;;;;;12.13;7.63;;;25.20;17.00;;;;;;5061710;27;46348;-67
2023/09/08 10:30:04;;;;;;;14.07;5.93;;;25.20;17.10;;;;;;5059883;27;46427;-66
2023/09/08 10:32:32;;;;;;;7.80;6.10;;;25.20;16.90;;;;;;5062412;27;46867;-66
2023/09/08 10:35:00;;;;;;;11.00;7.57;;;25.50;16.70;;;;;;5062568;27;47148;-71
2023/09/08 10:37:29;;;;;;;8.23;6.57;;;25.50;16.30;;;;;;5062394;27;46348;-68
2023/09/08 10:40:20;;;;;;;12.93;6.07;;;25.50;16.50;;;;;;5061724;27;46509;-69
2023/09/08 10:42:46;;;;;;;9.60;5.80;;;25.60;15.80;;;;;;5060147;27;46394;-70
2023/09/08 10:45:18;;;;;;;9.60;6.00;;;25.60;15.80;;;;;;5048871;27;48249;-70
2023/09/08 10:47:49;;;;;;;11.03;6.30;;;25.70;15.20;;;;;;5063797;27;46487;-69
2023/09/08 10:50:25;;;;;;;11.83;6.03;;;25.80;15.30;;;;;;5065237;28;46632;-69
2023/09/08 10:53:14;;;;;;;8.23;5.97;;;25.70;15.20;;;;;;5061062;27;46515;-69
2023/09/08 10:55:53;;;;;;;10.20;5.97;;;25.80;15.30;;;;;;5059213;28;47259;-68
2023/09/08 10:58:38;;;;;;;11.13;5.93;;;25.90;15.30;;;;;;5058170;27;46506;-69
2023/09/08 11:01:05;;;;;;;12.07;6.37;;;26.00;14.80;;;;;;5061109;27;46290;-69
2023/09/08 11:03:39;;;;;;;8.90;6.00;;;25.90;15.30;;;;;;5060763;27;46724;-71
2023/09/08 11:06:12;;;;;;;8.37;5.77;;;25.90;15.30;;;;;;5061084;27;46617;-69
2023/09/08 11:08:40;;;;;;;9.47;5.57;;;26.00;15.40;;;;;;5061711;27;46528;-71
2023/09/08 11:11:06;;;;;;;23.77;6.67;;;26.10;15.10;;;;;;5058973;27;46960;-70
2023/09/08 11:13:32;;;;;;;9.23;6.13;;;26.10;14.90;;;;;;5044651;28;46068;-69
2023/09/08 11:15:58;;;;;;;11.17;5.97;;;26.00;14.60;;;;;;5059081;27;46474;-70
2023/09/08 11:18:28;;;;;;;8.87;6.70;;;26.00;15.00;;;;;;5062695;27;46423;-70
2023/09/08 11:20:55;;;;;;;11.73;6.33;;;26.10;14.80;;;;;;5064904;27;46551;-68
2023/09/08 11:23:21;;;;;;;8.90;6.20;;;26.30;14.60;;;;;;5065752;27;46542;-70
2023/09/08 11:25:47;;;;;;;9.40;6.30;;;26.40;14.30;;;;;;5062356;27;46495;-69
2023/09/08 11:28:13;;;;;;;7.87;6.70;;;26.30;14.50;;;;;;5065563;27;46402;-70
2023/09/08 11:30:39;;;;;;;11.30;7.10;;;26.30;14.80;;;;;;5066177;27;46458;-70
2023/09/08 11:33:14;;;;;;;13.80;7.17;;;26.30;14.90;;;;;;5064284;27;45931;-66
2023/09/08 11:35:39;;;;;;;13.13;6.27;;;26.40;14.60;;;;;;5066932;27;46663;-67
2023/09/08 11:38:05;;;;;;;12.10;7.40;;;26.40;14.50;;;;;;5055905;28;46793;-66
2023/09/08 11:40:32;;;;;;;8.93;5.77;;;26.50;14.20;;;;;;5067861;27;46486;-67
2023/09/08 11:42:58;;;;;;;9.00;6.80;;;26.70;13.90;;;;;;5054360;27;46181;-67
2023/09/08 11:45:23;;;;;;;12.73;6.90;;;26.70;13.60;;;;;;5068120;27;46598;-66
2023/09/08 11:47:50;;;;;;;9.03;6.03;;;26.80;13.40;;;;;;5064261;27;46598;-66
2023/09/08 11:50:18;;;;;;;9.83;6.20;;;26.80;13.20;;;;;;5069394;27;46503;-65
2023/09/08 11:52:48;;;;;;;12.93;8.07;;;26.70;13.10;;;;;;5063461;27;46820;-65
2023/09/08 11:55:15;;;;;;;11.10;6.07;;;26.70;13.00;;;;;;5024301;27;48013;-64
2023/09/08 11:57:43;;;;;;;10.47;7.63;;;26.70;13.00;;;;;;5038168;27;46728;-67
2023/09/08 12:00:12;;;;;;;10.03;6.47;;;26.70;12.60;;;;;;5059482;27;45870;-66
2023/09/08 12:02:37;;;;;;;11.17;7.10;;;26.80;12.70;;;;;;5067970;27;46432;-66
2023/09/08 12:05:04;;;;;;;12.53;8.40;;;26.80;12.60;;;;;;5066496;27;47293;-66
2023/09/08 12:07:30;;;;;;;20.97;7.80;;;26.90;12.10;;;;;;5050579;28;46768;-66
2023/09/08 12:09:56;;;;;;;12.40;7.60;;;27.00;12.20;;;;;;5067287;27;46451;-65
2023/09/08 12:12:22;;;;;;;11.37;7.93;;;26.90;12.00;;;;;;5047037;28;46859;-66
2023/09/08 12:14:47;;;;;;;12.47;7.90;;;26.90;12.20;;;;;;5044503;27;46107;-66
2023/09/08 12:17:17;;;;;;;12.07;7.70;;;26.90;12.10;;;;;;5061502;27;46364;-66
2023/09/08 12:19:42;;;;;;;14.40;8.03;;;26.90;12.10;;;;;;5049305;27;46540;-66
2023/09/08 12:22:11;;;;;;;13.63;7.03;;;26.80;12.10;;;;;;5059707;27;45913;-65
2023/09/08 12:24:52;;;;;;;10.90;7.57;;;26.80;12.00;;;;;;5064453;27;46461;-67
2023/09/08 12:27:19;;;;;;;12.10;7.93;;;26.90;11.50;;;;;;5062301;27;46853;-65
2023/09/08 12:30:00;;;;;;;18.97;8.07;;;26.80;11.70;;;;;;5060298;27;46621;-65
2023/09/08 12:32:28;;;;;;;17.53;8.20;;;26.80;11.80;;;;;;5062751;27;45874;-66
2023/09/08 12:35:31;;;;;;;15.77;7.30;;;27.00;11.90;;;;;;5062328;27;47171;-66
2023/09/08 12:38:07;;;;;;;11.00;7.40;;;27.00;11.60;;;;;;5023016;27;45886;-68